sensor_id;sensor_type;location;lat;lon;timestamp;P1;durP1;ratioP1;P2;durP2;ratioP2
76459;SDS011;65299;46.084;18.762;2023-05-29T00:01:02;11.50;;;5.33;;
76459;SDS011;65299;46.084;18.762;2023-05-29T00:04:02;7.63;;;5.53;;
76459;SDS011;65299;46.084;18.762;2023-05-29T00:07:02;10.18;;;5.82;;
76459;SDS011;65299;46.084;18.762;2023-05-29T00:10:04;8.80;;;5.60;;
76459;SDS011;65299;46.084;18.762;2023-05-29T00:13:05;7.65;;;4.70;;
76459;SDS011;65299;46.084;18.762;2023-05-29T00:16:06;9.48;;;5.38;;
76459;SDS011;65299;46.084;18.762;2023-05-29T00:19:09;10.43;;;5.78;;
76459;SDS011;65299;46.084;18.762;2023-05-29T00:22:09;9.77;;;5.17;;
76459;SDS011;65299;46.084;18.762;2023-05-29T00:25:10;5.20;;;3.93;;
76459;SDS011;65299;46.084;18.762;2023-05-29T00:28:10;5.27;;;4.10;;
76459;SDS011;65299;46.084;18.762;2023-05-29T00:31:12;7.80;;;4.68;;
76459;SDS011;65299;46.084;18.762;2023-05-29T00:34:12;11.67;;;4.53;;
76459;SDS011;65299;46.084;18.762;2023-05-29T00:37:13;6.13;;;4.30;;
76459;SDS011;65299;46.084;18.762;2023-05-29T00:40:13;10.37;;;5.27;;
76459;SDS011;65299;46.084;18.762;2023-05-29T00:43:14;10.07;;;5.13;;
76459;SDS011;65299;46.084;18.762;2023-05-29T00:46:14;8.93;;;5.43;;
76459;SDS011;65299;46.084;18.762;2023-05-29T00:49:16;8.23;;;4.50;;
76459;SDS011;65299;46.084;18.762;2023-05-29T00:52:17;9.55;;;3.88;;
76459;SDS011;65299;46.084;18.762;2023-05-29T00:55:19;5.72;;;3.08;;
76459;SDS011;65299;46.084;18.762;2023-05-29T00:58:20;5.38;;;3.30;;
76459;SDS011;65299;46.084;18.762;2023-05-29T01:01:21;6.82;;;3.78;;
76459;SDS011;65299;46.084;18.762;2023-05-29T01:04:22;6.30;;;3.43;;
76459;SDS011;65299;46.084;18.762;2023-05-29T01:07:23;7.32;;;3.75;;
76459;SDS011;65299;46.084;18.762;2023-05-29T01:10:25;6.30;;;3.17;;
76459;SDS011;65299;46.084;18.762;2023-05-29T01:13:27;4.88;;;3.33;;
76459;SDS011;65299;46.084;18.762;2023-05-29T01:16:40;6.25;;;3.80;;
76459;SDS011;65299;46.084;18.762;2023-05-29T01:29:46;4.88;;;3.17;;
76459;SDS011;65299;46.084;18.762;2023-05-29T01:32:47;4.22;;;2.50;;
76459;SDS011;65299;46.084;18.762;2023-05-29T01:35:48;4.93;;;2.83;;
76459;SDS011;65299;46.084;18.762;2023-05-29T01:38:50;6.07;;;2.70;;
76459;SDS011;65299;46.084;18.762;2023-05-29T01:41:51;4.32;;;2.60;;
76459;SDS011;65299;46.084;18.762;2023-05-29T01:44:52;4.63;;;3.08;;
76459;SDS011;65299;46.084;18.762;2023-05-29T01:47:54;6.63;;;3.70;;
76459;SDS011;65299;46.084;18.762;2023-05-29T01:50:56;5.40;;;3.47;;
76459;SDS011;65299;46.084;18.762;2023-05-29T01:53:58;4.45;;;2.95;;
76459;SDS011;65299;46.084;18.762;2023-05-29T01:57:02;7.95;;;3.05;;
76459;SDS011;65299;46.084;18.762;2023-05-29T02:00:06;7.53;;;3.63;;
76459;SDS011;65299;46.084;18.762;2023-05-29T02:03:09;5.95;;;3.88;;
76459;SDS011;65299;46.084;18.762;2023-05-29T02:06:09;5.63;;;3.73;;
76459;SDS011;65299;46.084;18.762;2023-05-29T02:09:10;7.60;;;4.40;;
76459;SDS011;65299;46.084;18.762;2023-05-29T02:12:11;9.23;;;5.83;;
76459;SDS011;65299;46.084;18.762;2023-05-29T02:15:11;8.77;;;4.53;;
76459;SDS011;65299;46.084;18.762;2023-05-29T02:18:13;8.73;;;4.70;;
76459;SDS011;65299;46.084;18.762;2023-05-29T02:21:15;9.23;;;4.70;;
76459;SDS011;65299;46.084;18.762;2023-05-29T02:24:16;7.72;;;4.50;;
76459;SDS011;65299;46.084;18.762;2023-05-29T02:27:16;8.87;;;4.60;;
76459;SDS011;65299;46.084;18.762;2023-05-29T02:30:17;10.83;;;4.70;;
76459;SDS011;65299;46.084;18.762;2023-05-29T02:33:17;9.87;;;4.77;;
76459;SDS011;65299;46.084;18.762;2023-05-29T02:36:18;7.95;;;4.95;;
76459;SDS011;65299;46.084;18.762;2023-05-29T02:39:18;8.70;;;5.03;;
76459;SDS011;65299;46.084;18.762;2023-05-29T02:42:19;9.93;;;5.20;;
76459;SDS011;65299;46.084;18.762;2023-05-29T02:45:19;11.05;;;4.88;;
76459;SDS011;65299;46.084;18.762;2023-05-29T02:48:19;8.33;;;4.90;;
76459;SDS011;65299;46.084;18.762;2023-05-29T02:51:20;9.25;;;5.55;;
76459;SDS011;65299;46.084;18.762;2023-05-29T02:54:21;9.87;;;5.00;;
76459;SDS011;65299;46.084;18.762;2023-05-29T02:57:22;7.97;;;5.07;;
76459;SDS011;65299;46.084;18.762;2023-05-29T03:00:22;8.68;;;5.65;;
76459;SDS011;65299;46.084;18.762;2023-05-29T03:03:23;15.97;;;5.40;;
76459;SDS011;65299;46.084;18.762;2023-05-29T03:06:23;9.45;;;5.40;;
76459;SDS011;65299;46.084;18.762;2023-05-29T03:09:24;10.03;;;5.17;;
76459;SDS011;65299;46.084;18.762;2023-05-29T03:12:24;9.97;;;4.87;;
76459;SDS011;65299;46.084;18.762;2023-05-29T03:15:25;8.82;;;4.70;;
76459;SDS011;65299;46.084;18.762;2023-05-29T03:18:25;9.33;;;5.30;;
76459;SDS011;65299;46.084;18.762;2023-05-29T03:21:26;12.60;;;5.27;;
76459;SDS011;65299;46.084;18.762;2023-05-29T03:24:26;8.47;;;5.30;;
76459;SDS011;65299;46.084;18.762;2023-05-29T03:27:27;9.73;;;4.25;;
76459;SDS011;65299;46.084;18.762;2023-05-29T03:30:29;8.32;;;4.50;;
76459;SDS011;65299;46.084;18.762;2023-05-29T03:33:29;8.67;;;5.33;;
76459;SDS011;65299;46.084;18.762;2023-05-29T03:36:30;10.48;;;4.70;;
76459;SDS011;65299;46.084;18.762;2023-05-29T03:39:31;9.60;;;4.93;;
76459;SDS011;65299;46.084;18.762;2023-05-29T03:42:32;9.73;;;4.97;;
76459;SDS011;65299;46.084;18.762;2023-05-29T03:45:32;9.43;;;5.03;;
76459;SDS011;65299;46.084;18.762;2023-05-29T03:48:33;6.03;;;4.67;;
76459;SDS011;65299;46.084;18.762;2023-05-29T03:51:33;7.40;;;4.87;;
76459;SDS011;65299;46.084;18.762;2023-05-29T03:54:34;7.15;;;5.20;;
76459;SDS011;65299;46.084;18.762;2023-05-29T03:57:34;8.37;;;4.80;;
76459;SDS011;65299;46.084;18.762;2023-05-29T04:00:35;9.15;;;5.03;;
76459;SDS011;65299;46.084;18.762;2023-05-29T04:03:36;9.37;;;4.57;;
76459;SDS011;65299;46.084;18.762;2023-05-29T04:06:37;9.88;;;4.65;;
76459;SDS011;65299;46.084;18.762;2023-05-29T04:09:38;7.63;;;4.50;;
76459;SDS011;65299;46.084;18.762;2023-05-29T04:12:39;9.40;;;4.70;;
76459;SDS011;65299;46.084;18.762;2023-05-29T04:15:39;9.43;;;4.47;;
76459;SDS011;65299;46.084;18.762;2023-05-29T04:18:39;7.70;;;4.23;;
76459;SDS011;65299;46.084;18.762;2023-05-29T04:21:40;10.38;;;5.00;;
76459;SDS011;65299;46.084;18.762;2023-05-29T04:24:41;8.40;;;4.70;;
76459;SDS011;65299;46.084;18.762;2023-05-29T04:27:44;9.00;;;4.88;;
76459;SDS011;65299;46.084;18.762;2023-05-29T04:30:48;8.05;;;4.95;;
76459;SDS011;65299;46.084;18.762;2023-05-29T04:33:49;7.87;;;4.67;;
76459;SDS011;65299;46.084;18.762;2023-05-29T04:36:49;7.68;;;5.25;;
76459;SDS011;65299;46.084;18.762;2023-05-29T04:39:50;9.03;;;5.73;;
76459;SDS011;65299;46.084;18.762;2023-05-29T04:42:51;7.82;;;4.93;;
76459;SDS011;65299;46.084;18.762;2023-05-29T04:45:52;8.80;;;5.10;;
76459;SDS011;65299;46.084;18.762;2023-05-29T04:48:53;10.48;;;4.80;;
76459;SDS011;65299;46.084;18.762;2023-05-29T04:51:54;11.43;;;6.43;;
76459;SDS011;65299;46.084;18.762;2023-05-29T04:54:54;9.95;;;5.78;;
76459;SDS011;65299;46.084;18.762;2023-05-29T04:57:56;8.67;;;5.60;;
76459;SDS011;65299;46.084;18.762;2023-05-29T05:00:57;20.42;;;5.20;;
76459;SDS011;65299;46.084;18.762;2023-05-29T05:03:57;8.47;;;4.90;;
76459;SDS011;65299;46.084;18.762;2023-05-29T05:06:58;8.07;;;4.57;;
76459;SDS011;65299;46.084;18.762;2023-05-29T05:09:58;10.30;;;5.20;;
76459;SDS011;65299;46.084;18.762;2023-05-29T05:12:59;8.37;;;5.37;;
76459;SDS011;65299;46.084;18.762;2023-05-29T05:15:59;10.05;;;5.30;;
76459;SDS011;65299;46.084;18.762;2023-05-29T05:19:01;10.63;;;4.85;;
76459;SDS011;65299;46.084;18.762;2023-05-29T05:22:01;8.77;;;5.00;;
76459;SDS011;65299;46.084;18.762;2023-05-29T05:25:01;7.63;;;4.77;;
76459;SDS011;65299;46.084;18.762;2023-05-29T05:28:04;10.43;;;5.07;;
76459;SDS011;65299;46.084;18.762;2023-05-29T05:31:05;9.52;;;5.40;;
76459;SDS011;65299;46.084;18.762;2023-05-29T05:34:06;12.23;;;5.33;;
76459;SDS011;65299;46.084;18.762;2023-05-29T05:37:06;12.68;;;5.38;;
76459;SDS011;65299;46.084;18.762;2023-05-29T05:40:07;8.80;;;5.73;;
76459;SDS011;65299;46.084;18.762;2023-05-29T05:43:08;9.30;;;5.60;;
76459;SDS011;65299;46.084;18.762;2023-05-29T05:46:09;9.43;;;5.40;;
76459;SDS011;65299;46.084;18.762;2023-05-29T05:49:09;11.07;;;5.60;;
76459;SDS011;65299;46.084;18.762;2023-05-29T05:52:09;8.90;;;5.20;;
76459;SDS011;65299;46.084;18.762;2023-05-29T05:55:10;10.30;;;6.50;;
76459;SDS011;65299;46.084;18.762;2023-05-29T05:58:10;14.80;;;6.43;;
76459;SDS011;65299;46.084;18.762;2023-05-29T06:01:11;9.00;;;5.90;;
76459;SDS011;65299;46.084;18.762;2023-05-29T06:04:11;10.38;;;5.45;;
76459;SDS011;65299;46.084;18.762;2023-05-29T06:07:12;9.40;;;5.70;;
76459;SDS011;65299;46.084;18.762;2023-05-29T06:10:12;11.37;;;6.30;;
76459;SDS011;65299;46.084;18.762;2023-05-29T06:13:13;8.68;;;5.53;;
76459;SDS011;65299;46.084;18.762;2023-05-29T06:16:14;12.23;;;5.13;;
76459;SDS011;65299;46.084;18.762;2023-05-29T06:19:14;9.57;;;5.18;;
76459;SDS011;65299;46.084;18.762;2023-05-29T06:22:15;7.07;;;4.57;;
76459;SDS011;65299;46.084;18.762;2023-05-29T06:25:16;10.00;;;4.75;;
76459;SDS011;65299;46.084;18.762;2023-05-29T06:28:18;11.07;;;5.60;;
76459;SDS011;65299;46.084;18.762;2023-05-29T06:31:18;8.48;;;5.00;;
76459;SDS011;65299;46.084;18.762;2023-05-29T06:34:19;10.97;;;5.97;;
76459;SDS011;65299;46.084;18.762;2023-05-29T06:37:19;10.47;;;5.17;;
76459;SDS011;65299;46.084;18.762;2023-05-29T06:40:20;8.45;;;5.05;;
76459;SDS011;65299;46.084;18.762;2023-05-29T06:43:20;10.53;;;5.00;;
76459;SDS011;65299;46.084;18.762;2023-05-29T06:46:21;8.53;;;5.20;;
76459;SDS011;65299;46.084;18.762;2023-05-29T06:49:21;10.33;;;5.47;;
76459;SDS011;65299;46.084;18.762;2023-05-29T06:52:22;9.93;;;5.60;;
76459;SDS011;65299;46.084;18.762;2023-05-29T06:55:22;10.20;;;5.27;;
76459;SDS011;65299;46.084;18.762;2023-05-29T06:58:22;9.90;;;5.90;;
76459;SDS011;65299;46.084;18.762;2023-05-29T07:01:23;10.50;;;5.00;;
76459;SDS011;65299;46.084;18.762;2023-05-29T07:04:24;10.40;;;5.73;;
76459;SDS011;65299;46.084;18.762;2023-05-29T07:07:24;11.40;;;5.63;;
76459;SDS011;65299;46.084;18.762;2023-05-29T07:10:24;9.82;;;5.68;;
76459;SDS011;65299;46.084;18.762;2023-05-29T07:13:25;10.03;;;5.23;;
76459;SDS011;65299;46.084;18.762;2023-05-29T07:16:29;8.75;;;5.60;;
76459;SDS011;65299;46.084;18.762;2023-05-29T07:19:29;11.73;;;5.67;;
76459;SDS011;65299;46.084;18.762;2023-05-29T07:22:32;7.03;;;5.47;;
76459;SDS011;65299;46.084;18.762;2023-05-29T07:25:32;9.73;;;5.40;;
76459;SDS011;65299;46.084;18.762;2023-05-29T07:28:33;12.77;;;5.40;;
76459;SDS011;65299;46.084;18.762;2023-05-29T07:31:33;7.80;;;4.78;;
76459;SDS011;65299;46.084;18.762;2023-05-29T07:34:34;8.83;;;5.00;;
76459;SDS011;65299;46.084;18.762;2023-05-29T07:37:34;7.40;;;4.50;;
76459;SDS011;65299;46.084;18.762;2023-05-29T07:40:35;8.60;;;5.10;;
76459;SDS011;65299;46.084;18.762;2023-05-29T07:43:35;9.57;;;5.47;;
76459;SDS011;65299;46.084;18.762;2023-05-29T07:46:36;9.23;;;5.23;;
76459;SDS011;65299;46.084;18.762;2023-05-29T07:49:36;9.10;;;5.63;;
76459;SDS011;65299;46.084;18.762;2023-05-29T07:52:36;9.33;;;5.43;;
76459;SDS011;65299;46.084;18.762;2023-05-29T07:55:37;8.50;;;5.00;;
76459;SDS011;65299;46.084;18.762;2023-05-29T07:58:37;9.60;;;5.50;;
76459;SDS011;65299;46.084;18.762;2023-05-29T08:01:40;8.35;;;5.72;;
76459;SDS011;65299;46.084;18.762;2023-05-29T08:04:40;11.90;;;5.70;;
76459;SDS011;65299;46.084;18.762;2023-05-29T08:07:41;7.75;;;5.93;;
76459;SDS011;65299;46.084;18.762;2023-05-29T08:10:42;10.00;;;5.97;;
76459;SDS011;65299;46.084;18.762;2023-05-29T08:13:43;8.70;;;5.47;;
76459;SDS011;65299;46.084;18.762;2023-05-29T08:16:43;9.33;;;5.93;;
76459;SDS011;65299;46.084;18.762;2023-05-29T08:19:44;10.80;;;5.93;;
76459;SDS011;65299;46.084;18.762;2023-05-29T08:22:44;11.10;;;5.80;;
76459;SDS011;65299;46.084;18.762;2023-05-29T08:25:45;8.77;;;5.85;;
76459;SDS011;65299;46.084;18.762;2023-05-29T08:28:45;10.10;;;5.70;;
76459;SDS011;65299;46.084;18.762;2023-05-29T08:31:45;7.60;;;5.23;;
76459;SDS011;65299;46.084;18.762;2023-05-29T08:34:46;8.93;;;5.95;;
76459;SDS011;65299;46.084;18.762;2023-05-29T08:37:46;9.77;;;5.57;;
76459;SDS011;65299;46.084;18.762;2023-05-29T08:40:47;7.80;;;5.80;;
76459;SDS011;65299;46.084;18.762;2023-05-29T08:43:48;8.18;;;5.45;;
76459;SDS011;65299;46.084;18.762;2023-05-29T08:46:51;10.57;;;5.70;;
76459;SDS011;65299;46.084;18.762;2023-05-29T08:49:55;7.32;;;5.40;;
76459;SDS011;65299;46.084;18.762;2023-05-29T08:52:57;8.80;;;5.53;;
76459;SDS011;65299;46.084;18.762;2023-05-29T08:55:57;9.60;;;5.05;;
76459;SDS011;65299;46.084;18.762;2023-05-29T08:58:58;10.37;;;5.83;;
76459;SDS011;65299;46.084;18.762;2023-05-29T09:02:00;6.72;;;5.18;;
76459;SDS011;65299;46.084;18.762;2023-05-29T09:05:01;9.17;;;5.27;;
76459;SDS011;65299;46.084;18.762;2023-05-29T09:08:01;10.05;;;5.43;;
76459;SDS011;65299;46.084;18.762;2023-05-29T09:11:04;9.97;;;5.20;;
76459;SDS011;65299;46.084;18.762;2023-05-29T09:14:05;7.72;;;5.03;;
76459;SDS011;65299;46.084;18.762;2023-05-29T09:17:05;7.57;;;5.00;;
76459;SDS011;65299;46.084;18.762;2023-05-29T09:20:14;9.80;;;5.18;;
76459;SDS011;65299;46.084;18.762;2023-05-29T09:23:15;7.72;;;5.38;;
76459;SDS011;65299;46.084;18.762;2023-05-29T09:26:18;9.23;;;4.95;;
76459;SDS011;65299;46.084;18.762;2023-05-29T09:29:22;7.50;;;4.90;;
76459;SDS011;65299;46.084;18.762;2023-05-29T09:32:22;8.80;;;5.33;;
76459;SDS011;65299;46.084;18.762;2023-05-29T09:35:23;9.77;;;4.90;;
76459;SDS011;65299;46.084;18.762;2023-05-29T09:38:23;5.70;;;4.80;;
76459;SDS011;65299;46.084;18.762;2023-05-29T09:41:24;6.78;;;5.18;;
76459;SDS011;65299;46.084;18.762;2023-05-29T09:44:24;6.47;;;5.00;;
76459;SDS011;65299;46.084;18.762;2023-05-29T09:47:27;8.52;;;5.47;;
76459;SDS011;65299;46.084;18.762;2023-05-29T09:50:33;8.77;;;5.55;;
76459;SDS011;65299;46.084;18.762;2023-05-29T09:53:34;12.17;;;6.00;;
76459;SDS011;65299;46.084;18.762;2023-05-29T09:56:43;8.23;;;5.70;;
76459;SDS011;65299;46.084;18.762;2023-05-29T09:59:45;8.82;;;5.57;;
76459;SDS011;65299;46.084;18.762;2023-05-29T10:02:51;8.63;;;5.22;;
76459;SDS011;65299;46.084;18.762;2023-05-29T10:05:52;8.17;;;5.33;;
76459;SDS011;65299;46.084;18.762;2023-05-29T10:08:56;6.53;;;4.57;;
76459;SDS011;65299;46.084;18.762;2023-05-29T10:11:59;9.75;;;5.32;;
76459;SDS011;65299;46.084;18.762;2023-05-29T10:15:14;7.87;;;5.80;;
76459;SDS011;65299;46.084;18.762;2023-05-29T10:21:19;9.02;;;5.65;;
76459;SDS011;65299;46.084;18.762;2023-05-29T10:24:21;8.43;;;5.40;;
76459;SDS011;65299;46.084;18.762;2023-05-29T10:27:22;9.60;;;5.20;;
76459;SDS011;65299;46.084;18.762;2023-05-29T10:33:48;7.72;;;4.38;;
76459;SDS011;65299;46.084;18.762;2023-05-29T10:37:09;5.70;;;3.50;;
76459;SDS011;65299;46.084;18.762;2023-05-29T10:40:24;4.55;;;3.38;;
76459;SDS011;65299;46.084;18.762;2023-05-29T10:47:00;5.22;;;3.97;;
76459;SDS011;65299;46.084;18.762;2023-05-29T10:50:00;10.80;;;4.47;;
76459;SDS011;65299;46.084;18.762;2023-05-29T10:53:02;6.33;;;4.10;;
76459;SDS011;65299;46.084;18.762;2023-05-29T10:56:02;5.70;;;4.13;;
76459;SDS011;65299;46.084;18.762;2023-05-29T10:59:04;4.97;;;4.00;;
76459;SDS011;65299;46.084;18.762;2023-05-29T11:02:04;6.27;;;4.30;;
76459;SDS011;65299;46.084;18.762;2023-05-29T11:05:20;6.95;;;4.30;;
76459;SDS011;65299;46.084;18.762;2023-05-29T11:11:46;6.28;;;4.32;;
76459;SDS011;65299;46.084;18.762;2023-05-29T11:15:25;6.68;;;4.70;;
76459;SDS011;65299;46.084;18.762;2023-05-29T11:18:26;6.18;;;4.32;;
76459;SDS011;65299;46.084;18.762;2023-05-29T11:24:33;6.93;;;4.40;;
76459;SDS011;65299;46.084;18.762;2023-05-29T11:27:37;4.93;;;4.10;;
76459;SDS011;65299;46.084;18.762;2023-05-29T11:30:44;7.47;;;4.20;;
76459;SDS011;65299;46.084;18.762;2023-05-29T11:33:47;6.60;;;3.80;;
76459;SDS011;65299;46.084;18.762;2023-05-29T11:36:51;6.20;;;3.90;;
76459;SDS011;65299;46.084;18.762;2023-05-29T11:39:51;5.78;;;4.28;;
76459;SDS011;65299;46.084;18.762;2023-05-29T11:42:52;7.07;;;4.90;;
76459;SDS011;65299;46.084;18.762;2023-05-29T11:45:52;7.07;;;4.80;;
76459;SDS011;65299;46.084;18.762;2023-05-29T11:48:53;6.97;;;4.80;;
76459;SDS011;65299;46.084;18.762;2023-05-29T11:51:53;6.40;;;5.00;;
76459;SDS011;65299;46.084;18.762;2023-05-29T11:54:54;7.20;;;4.55;;
76459;SDS011;65299;46.084;18.762;2023-05-29T11:58:00;5.17;;;4.40;;
76459;SDS011;65299;46.084;18.762;2023-05-29T12:01:02;5.90;;;3.97;;
76459;SDS011;65299;46.084;18.762;2023-05-29T12:04:03;5.38;;;3.70;;
76459;SDS011;65299;46.084;18.762;2023-05-29T12:07:17;8.43;;;3.67;;
76459;SDS011;65299;46.084;18.762;2023-05-29T12:10:21;3.22;;;2.92;;
76459;SDS011;65299;46.084;18.762;2023-05-29T12:13:22;2.70;;;2.30;;
76459;SDS011;65299;46.084;18.762;2023-05-29T12:16:23;4.35;;;2.55;;
76459;SDS011;65299;46.084;18.762;2023-05-29T12:19:26;3.00;;;2.40;;
76459;SDS011;65299;46.084;18.762;2023-05-29T12:22:33;3.37;;;2.53;;
76459;SDS011;65299;46.084;18.762;2023-05-29T12:25:37;3.63;;;2.20;;
76459;SDS011;65299;46.084;18.762;2023-05-29T12:28:42;2.97;;;2.20;;
76459;SDS011;65299;46.084;18.762;2023-05-29T12:31:44;3.20;;;2.17;;
76459;SDS011;65299;46.084;18.762;2023-05-29T12:34:48;2.90;;;2.40;;
76459;SDS011;65299;46.084;18.762;2023-05-29T12:37:51;3.60;;;2.10;;
76459;SDS011;65299;46.084;18.762;2023-05-29T12:40:54;2.50;;;2.30;;
76459;SDS011;65299;46.084;18.762;2023-05-29T12:43:55;3.00;;;2.13;;
76459;SDS011;65299;46.084;18.762;2023-05-29T12:46:56;3.35;;;2.30;;
76459;SDS011;65299;46.084;18.762;2023-05-29T12:49:58;2.45;;;2.17;;
76459;SDS011;65299;46.084;18.762;2023-05-29T12:53:02;5.27;;;2.57;;
76459;SDS011;65299;46.084;18.762;2023-05-29T12:56:04;4.30;;;2.42;;
76459;SDS011;65299;46.084;18.762;2023-05-29T12:59:04;3.57;;;2.67;;
76459;SDS011;65299;46.084;18.762;2023-05-29T13:02:05;3.80;;;2.87;;
76459;SDS011;65299;46.084;18.762;2023-05-29T13:05:07;4.30;;;3.03;;
76459;SDS011;65299;46.084;18.762;2023-05-29T13:08:08;3.90;;;3.47;;
76459;SDS011;65299;46.084;18.762;2023-05-29T13:11:08;7.17;;;4.13;;
76459;SDS011;65299;46.084;18.762;2023-05-29T13:14:09;6.60;;;5.03;;
76459;SDS011;65299;46.084;18.762;2023-05-29T13:17:09;7.80;;;5.30;;
76459;SDS011;65299;46.084;18.762;2023-05-29T13:20:11;7.10;;;5.07;;
76459;SDS011;65299;46.084;18.762;2023-05-29T13:23:13;7.63;;;5.53;;
76459;SDS011;65299;46.084;18.762;2023-05-29T13:26:13;8.33;;;5.00;;
76459;SDS011;65299;46.084;18.762;2023-05-29T13:29:14;7.82;;;4.43;;
76459;SDS011;65299;46.084;18.762;2023-05-29T13:32:14;5.70;;;4.60;;
76459;SDS011;65299;46.084;18.762;2023-05-29T13:35:14;6.83;;;4.47;;
76459;SDS011;65299;46.084;18.762;2023-05-29T13:38:15;7.33;;;4.87;;
76459;SDS011;65299;46.084;18.762;2023-05-29T13:41:15;6.53;;;4.40;;
76459;SDS011;65299;46.084;18.762;2023-05-29T13:44:16;5.57;;;4.03;;
76459;SDS011;65299;46.084;18.762;2023-05-29T13:47:16;5.13;;;2.93;;
76459;SDS011;65299;46.084;18.762;2023-05-29T13:50:17;5.13;;;3.53;;
76459;SDS011;65299;46.084;18.762;2023-05-29T13:53:17;4.13;;;3.63;;
76459;SDS011;65299;46.084;18.762;2023-05-29T13:56:17;5.47;;;3.50;;
76459;SDS011;65299;46.084;18.762;2023-05-29T13:59:18;5.23;;;2.80;;
76459;SDS011;65299;46.084;18.762;2023-05-29T14:02:18;3.97;;;3.10;;
76459;SDS011;65299;46.084;18.762;2023-05-29T14:05:19;3.70;;;3.10;;
76459;SDS011;65299;46.084;18.762;2023-05-29T14:08:19;3.90;;;2.92;;
76459;SDS011;65299;46.084;18.762;2023-05-29T14:11:19;4.30;;;3.00;;
76459;SDS011;65299;46.084;18.762;2023-05-29T14:14:20;4.00;;;3.03;;
76459;SDS011;65299;46.084;18.762;2023-05-29T14:17:21;4.53;;;3.10;;
76459;SDS011;65299;46.084;18.762;2023-05-29T14:20:22;4.97;;;2.80;;
76459;SDS011;65299;46.084;18.762;2023-05-29T14:23:22;3.53;;;2.13;;
76459;SDS011;65299;46.084;18.762;2023-05-29T14:26:23;3.77;;;3.17;;
76459;SDS011;65299;46.084;18.762;2023-05-29T14:29:23;4.40;;;3.20;;
76459;SDS011;65299;46.084;18.762;2023-05-29T14:32:23;5.30;;;3.13;;
76459;SDS011;65299;46.084;18.762;2023-05-29T14:35:24;3.95;;;3.35;;
76459;SDS011;65299;46.084;18.762;2023-05-29T14:38:25;5.00;;;3.47;;
76459;SDS011;65299;46.084;18.762;2023-05-29T14:41:26;5.00;;;3.37;;
76459;SDS011;65299;46.084;18.762;2023-05-29T14:44:27;4.53;;;4.10;;
76459;SDS011;65299;46.084;18.762;2023-05-29T14:47:27;4.63;;;4.13;;
76459;SDS011;65299;46.084;18.762;2023-05-29T14:50:28;5.17;;;3.63;;
76459;SDS011;65299;46.084;18.762;2023-05-29T14:53:28;3.67;;;3.03;;
76459;SDS011;65299;46.084;18.762;2023-05-29T14:56:30;3.28;;;2.10;;
76459;SDS011;65299;46.084;18.762;2023-05-29T14:59:30;2.80;;;2.60;;
76459;SDS011;65299;46.084;18.762;2023-05-29T15:02:31;3.93;;;2.33;;
76459;SDS011;65299;46.084;18.762;2023-05-29T15:05:32;4.70;;;2.65;;
76459;SDS011;65299;46.084;18.762;2023-05-29T15:08:32;3.40;;;2.67;;
76459;SDS011;65299;46.084;18.762;2023-05-29T15:11:34;8.13;;;2.58;;
76459;SDS011;65299;46.084;18.762;2023-05-29T15:14:35;2.93;;;2.17;;
76459;SDS011;65299;46.084;18.762;2023-05-29T15:17:35;3.23;;;2.93;;
76459;SDS011;65299;46.084;18.762;2023-05-29T15:20:36;3.67;;;2.90;;
76459;SDS011;65299;46.084;18.762;2023-05-29T15:23:37;3.37;;;3.07;;
76459;SDS011;65299;46.084;18.762;2023-05-29T15:26:38;3.22;;;2.67;;
76459;SDS011;65299;46.084;18.762;2023-05-29T15:29:41;3.27;;;2.90;;
76459;SDS011;65299;46.084;18.762;2023-05-29T15:32:42;3.53;;;2.90;;
76459;SDS011;65299;46.084;18.762;2023-05-29T15:35:43;3.65;;;2.40;;
76459;SDS011;65299;46.084;18.762;2023-05-29T15:38:46;3.28;;;2.80;;
76459;SDS011;65299;46.084;18.762;2023-05-29T15:41:47;3.40;;;3.10;;
76459;SDS011;65299;46.084;18.762;2023-05-29T15:44:47;3.72;;;2.50;;
76459;SDS011;65299;46.084;18.762;2023-05-29T15:47:48;3.00;;;2.50;;
76459;SDS011;65299;46.084;18.762;2023-05-29T15:50:49;4.38;;;2.88;;
76459;SDS011;65299;46.084;18.762;2023-05-29T15:53:50;3.70;;;2.73;;
76459;SDS011;65299;46.084;18.762;2023-05-29T15:56:50;4.93;;;2.77;;
76459;SDS011;65299;46.084;18.762;2023-05-29T15:59:51;3.42;;;3.13;;
76459;SDS011;65299;46.084;18.762;2023-05-29T16:02:51;3.87;;;3.07;;
76459;SDS011;65299;46.084;18.762;2023-05-29T16:05:52;4.47;;;3.60;;
76459;SDS011;65299;46.084;18.762;2023-05-29T16:08:52;4.07;;;3.47;;
76459;SDS011;65299;46.084;18.762;2023-05-29T16:11:52;4.25;;;3.17;;
76459;SDS011;65299;46.084;18.762;2023-05-29T16:14:53;4.37;;;3.00;;
76459;SDS011;65299;46.084;18.762;2023-05-29T16:17:54;4.13;;;3.20;;
76459;SDS011;65299;46.084;18.762;2023-05-29T16:20:54;5.00;;;3.20;;
76459;SDS011;65299;46.084;18.762;2023-05-29T16:23:55;3.93;;;3.20;;
76459;SDS011;65299;46.084;18.762;2023-05-29T16:26:57;4.65;;;3.47;;
76459;SDS011;65299;46.084;18.762;2023-05-29T16:29:58;4.20;;;3.10;;
76459;SDS011;65299;46.084;18.762;2023-05-29T16:32:58;5.32;;;3.10;;
76459;SDS011;65299;46.084;18.762;2023-05-29T16:35:59;4.37;;;3.17;;
76459;SDS011;65299;46.084;18.762;2023-05-29T16:39:00;5.80;;;3.00;;
76459;SDS011;65299;46.084;18.762;2023-05-29T16:42:00;3.67;;;2.80;;
76459;SDS011;65299;46.084;18.762;2023-05-29T16:45:01;4.50;;;3.40;;
76459;SDS011;65299;46.084;18.762;2023-05-29T16:48:01;5.00;;;3.13;;
76459;SDS011;65299;46.084;18.762;2023-05-29T16:51:02;5.97;;;3.23;;
76459;SDS011;65299;46.084;18.762;2023-05-29T16:54:02;6.93;;;3.37;;
76459;SDS011;65299;46.084;18.762;2023-05-29T16:57:03;3.95;;;3.15;;
76459;SDS011;65299;46.084;18.762;2023-05-29T17:00:04;5.38;;;3.03;;
76459;SDS011;65299;46.084;18.762;2023-05-29T17:03:06;4.07;;;3.10;;
76459;SDS011;65299;46.084;18.762;2023-05-29T17:06:07;5.22;;;3.30;;
76459;SDS011;65299;46.084;18.762;2023-05-29T17:09:07;3.70;;;3.20;;
76459;SDS011;65299;46.084;18.762;2023-05-29T17:12:08;4.00;;;3.30;;
76459;SDS011;65299;46.084;18.762;2023-05-29T17:15:10;4.03;;;3.10;;
76459;SDS011;65299;46.084;18.762;2023-05-29T17:18:11;3.70;;;3.05;;
76459;SDS011;65299;46.084;18.762;2023-05-29T17:21:11;5.60;;;3.10;;
76459;SDS011;65299;46.084;18.762;2023-05-29T17:24:12;4.32;;;2.72;;
76459;SDS011;65299;46.084;18.762;2023-05-29T17:27:13;5.90;;;2.75;;
76459;SDS011;65299;46.084;18.762;2023-05-29T17:30:13;6.13;;;2.50;;
76459;SDS011;65299;46.084;18.762;2023-05-29T17:33:15;3.00;;;2.17;;
76459;SDS011;65299;46.084;18.762;2023-05-29T17:36:16;4.70;;;2.42;;
76459;SDS011;65299;46.084;18.762;2023-05-29T17:39:16;4.40;;;2.33;;
76459;SDS011;65299;46.084;18.762;2023-05-29T17:42:17;3.37;;;1.80;;
76459;SDS011;65299;46.084;18.762;2023-05-29T17:45:17;4.37;;;2.23;;
76459;SDS011;65299;46.084;18.762;2023-05-29T17:48:21;4.18;;;2.40;;
76459;SDS011;65299;46.084;18.762;2023-05-29T17:51:22;3.70;;;2.20;;
76459;SDS011;65299;46.084;18.762;2023-05-29T17:54:24;3.53;;;2.20;;
76459;SDS011;65299;46.084;18.762;2023-05-29T17:57:26;3.25;;;2.15;;
76459;SDS011;65299;46.084;18.762;2023-05-29T18:00:26;2.67;;;1.83;;
76459;SDS011;65299;46.084;18.762;2023-05-29T18:03:27;3.78;;;2.10;;
76459;SDS011;65299;46.084;18.762;2023-05-29T18:06:27;3.87;;;2.17;;
76459;SDS011;65299;46.084;18.762;2023-05-29T18:09:27;2.43;;;2.17;;
76459;SDS011;65299;46.084;18.762;2023-05-29T18:12:28;6.13;;;2.17;;
76459;SDS011;65299;46.084;18.762;2023-05-29T18:15:28;4.93;;;2.10;;
76459;SDS011;65299;46.084;18.762;2023-05-29T18:18:29;4.10;;;2.20;;
76459;SDS011;65299;46.084;18.762;2023-05-29T18:21:29;2.97;;;2.30;;